Time;durP1;ratioP1;P1;durP2;ratioP2;P2;SDS_P1;SDS_P2;PMS_P1;PMS_P2;Temp;Humidity;BMP_temperature;BMP_pressure;BME280_temperature;BME280_humidity;BME280_pressure;Samples;Min_cycle;Max_cycle;Signal;HPM_P1;HPM_P2
2023/01/27 00:00:07;;;;;;;;;;;;;;;;;;6129921;23;19916;-90
2023/01/27 00:02:41;;;;;;;;;;;;;;;;;;6130155;23;19916;-90
2023/01/27 00:05:07;;;;;;;;;;;;;;;;;;6130571;23;19991;-89
2023/01/27 00:07:32;;;;;;;;;;;;;;;;;;6130116;23;19956;-89
2023/01/27 00:09:58;;;;;;;;;;;;;;;;;;6129569;23;20347;-89
2023/01/27 00:15:09;;;;;;;;;;;;;;;;;;6154560;23;19923;-89
2023/01/27 00:26:11;;;;;;;;;;;;;;;;;;6154641;23;19995;-90
2023/01/27 00:28:37;;;;;;;;;;;;;;;;;;6129883;23;19940;-90
2023/01/27 00:31:03;;;;;;;;;;;;;;;;;;6129695;23;19940;-90
2023/01/27 00:33:29;;;;;;;;;;;;;;;;;;6154632;23;20339;-90
2023/01/27 00:35:55;;;;;;;;;;;;;;;;;;6154583;23;19940;-90
2023/01/27 00:38:21;;;;;;;;;;;;;;;;;;6154741;23;19917;-90
2023/01/27 00:41:14;;;;;;;;;;;;;;;;;;6154148;23;19916;-90
2023/01/27 00:43:34;;;;;;;;;;;;;;;;;;6154161;23;19928;-89
2023/01/27 00:46:00;;;;;;;;;;;;;;;;;;6129973;23;19920;-90
2023/01/27 00:48:27;;;;;;;;;;;;;;;;;;6154692;23;20465;-89
2023/01/27 00:50:53;;;;;;;;;;;;;;;;;;6154139;23;19952;-89
2023/01/27 00:53:19;;;;;;;;;;;;;;;;;;6154463;23;19917;-90
2023/01/27 00:55:46;;;;;;;;;;;;;;;;;;6129819;23;19924;-90
2023/01/27 00:58:12;;;;;;;;;;;;;;;;;;6129714;23;19923;-89
2023/01/27 01:00:38;;;;;;;;;;;;;;;;;;6129337;23;19917;-90
2023/01/27 01:03:04;;;;;;;;;;;;;;;;;;6129600;23;19920;-89
2023/01/27 01:05:29;;;;;;;;;;;;;;;;;;6129879;23;19916;-89
2023/01/27 01:07:55;;;;;;;;;;;;;;;;;;6129712;23;20328;-89
2023/01/27 01:10:21;;;;;;;;;;;;;;;;;;6129411;23;19924;-90
2023/01/27 01:12:50;;;;;;;;;;;;;;;;;;6129822;23;19988;-90
2023/01/27 01:15:16;;;;;;;;;;;;;;;;;;6129686;23;19964;-90
2023/01/27 01:17:42;;;;;;;;;;;;;;;;;;6129953;23;19953;-90
2023/01/27 01:20:26;;;;;;;;;;;;;;;;;;6129176;23;20355;-90
2023/01/27 01:22:52;;;;;;;;;;;;;;;;;;6129677;23;19995;-90
2023/01/27 01:25:18;;;;;;;;;;;;;;;;;;6129778;23;20002;-90
2023/01/27 01:27:44;;;;;;;;;;;;;;;;;;6154219;23;19916;-90
2023/01/27 01:30:10;;;;;;;;;;;;;;;;;;6153904;23;19968;-90
2023/01/27 01:32:36;;;;;;;;;;;;;;;;;;6129826;23;19920;-89
2023/01/27 01:35:03;;;;;;;;;;;;;;;;;;6154515;23;19917;-90
2023/01/27 01:37:29;;;;;;;;;;;;;;;;;;6154481;23;19916;-90
2023/01/27 01:39:55;;;;;;;;;;;;;;;;;;6129116;23;19923;-89
2023/01/27 01:42:21;;;;;;;;;;;;;;;;;;6129519;23;20362;-90
2023/01/27 01:44:47;;;;;;;;;;;;;;;;;;6129632;23;19920;-90
2023/01/27 01:47:12;;;;;;;;;;;;;;;;;;6155662;23;19917;-90
2023/01/27 01:49:38;;;;;;;;;;;;;;;;;;6131220;23;20332;-90
2023/01/27 01:52:05;;;;;;;;;;;;;;;;;;6156239;23;20255;-90
2023/01/27 01:54:31;;;;;;;;;;;;;;;;;;6131656;23;19940;-90
2023/01/27 01:56:57;;;;;;;;;;;;;;;;;;6156128;23;19924;-90
2023/01/27 01:59:23;;;;;;;;;;;;;;;;;;6130922;23;20238;-90
2023/01/27 02:01:48;;;;;;;;;;;;;;;;;;6131499;23;19917;-90
2023/01/27 02:04:14;;;;;;;;;;;;;;;;;;6131400;23;19924;-90
2023/01/27 02:06:40;;;;;;;;;;;;;;;;;;6156038;23;19920;-89
2023/01/27 02:09:06;;;;;;;;;;;;;;;;;;6155508;23;20238;-90
2023/01/27 02:11:32;;;;;;;;;;;;;;;;;;6131576;23;19924;-90
2023/01/27 02:13:58;;;;;;;;;;;;;;;;;;6131409;23;20408;-89
2023/01/27 02:16:24;;;;;;;;;;;;;;;;;;6131294;23;19917;-90
2023/01/27 02:18:50;;;;;;;;;;;;;;;;;;6131083;23;19979;-89
2023/01/27 02:21:16;;;;;;;;;;;;;;;;;;6131378;23;20394;-90
2023/01/27 02:23:42;;;;;;;;;;;;;;;;;;6155824;23;19928;-90
2023/01/27 02:26:07;;;;;;;;;;;;;;;;;;6131394;23;19916;-90
2023/01/27 02:28:33;;;;;;;;;;;;;;;;;;6131080;23;19917;-90
2023/01/27 02:30:59;;;;;;;;;;;;;;;;;;6130758;23;20000;-90
2023/01/27 02:36:19;;;;;;;;;;;;;;;;;;6156005;23;19916;-90
2023/01/27 02:38:45;;;;;;;;;;;;;;;;;;6130912;23;19963;-89
2023/01/27 02:41:11;;;;;;;;;;;;;;;;;;6129940;23;20315;-90
2023/01/27 02:46:15;;;;;;;;;;;;;;;;;;6155596;23;19991;-90
2023/01/27 02:48:41;;;;;;;;;;;;;;;;;;6155907;23;19949;-90
2023/01/27 02:51:07;;;;;;;;;;;;;;;;;;6130646;23;20366;-90
2023/01/27 02:53:33;;;;;;;;;;;;;;;;;;6131019;23;20228;-90
2023/01/27 02:55:59;;;;;;;;;;;;;;;;;;6155583;23;19916;-90
2023/01/27 02:58:24;;;;;;;;;;;;;;;;;;6155358;23;19917;-89
2023/01/27 03:00:50;;;;;;;;;;;;;;;;;;6155159;23;19920;-90
2023/01/27 03:03:16;;;;;;;;;;;;;;;;;;6131041;23;19920;-90
2023/01/27 03:05:42;;;;;;;;;;;;;;;;;;6155577;23;19924;-90
2023/01/27 03:08:08;;;;;;;;;;;;;;;;;;6131016;23;19917;-90
2023/01/27 03:10:34;;;;;;;;;;;;;;;;;;6154936;23;19917;-90
2023/01/27 03:13:00;;;;;;;;;;;;;;;;;;6130861;23;20362;-90
2023/01/27 03:18:16;;;;;;;;;;;;;;;;;;6155514;23;19921;-90
2023/01/27 03:20:42;;;;;;;;;;;;;;;;;;6130367;23;19923;-90
2023/01/27 03:23:08;;;;;;;;;;;;;;;;;;6130483;23;20250;-89
2023/01/27 03:25:34;;;;;;;;;;;;;;;;;;6130748;23;19916;-90
2023/01/27 03:28:00;;;;;;;;;;;;;;;;;;6154990;23;20355;-89
2023/01/27 03:30:26;;;;;;;;;;;;;;;;;;6130230;23;19924;-90
2023/01/27 03:32:52;;;;;;;;;;;;;;;;;;6130750;23;19917;-90
2023/01/27 03:35:18;;;;;;;;;;;;;;;;;;6130648;23;20246;-90
2023/01/27 03:46:17;;;;;;;;;;;;;;;;;;6155198;23;20254;-89
2023/01/27 03:48:43;;;;;;;;;;;;;;;;;;6155017;23;19917;-90
2023/01/27 03:51:09;;;;;;;;;;;;;;;;;;6130075;23;19972;-90
2023/01/27 03:53:35;;;;;;;;;;;;;;;;;;6130382;23;19916;-90
2023/01/27 03:56:01;;;;;;;;;;;;;;;;;;6130360;23;19996;-90
2023/01/27 03:58:27;;;;;;;;;;;;;;;;;;6130397;23;20365;-90
2023/01/27 04:00:53;;;;;;;;;;;;;;;;;;6129954;23;19920;-90
2023/01/27 04:08:48;;;;;;;;;;;;;;;;;;6154567;23;20029;-90
2023/01/27 04:13:59;;;;;;;;;;;;;;;;;;6154739;23;19924;-89
2023/01/27 04:16:27;;;;;;;;;;;;;;;;;;6154694;23;19917;-89
2023/01/27 04:18:54;;;;;;;;;;;;;;;;;;6154307;23;19923;-89
2023/01/27 04:21:19;;;;;;;;;;;;;;;;;;6154943;23;19917;-89
2023/01/27 04:23:45;;;;;;;;;;;;;;;;;;6130026;23;20250;-89
2023/01/27 04:26:11;;;;;;;;;;;;;;;;;;6130264;23;19991;-90
2023/01/27 04:28:37;;;;;;;;;;;;;;;;;;6154580;23;19917;-89
2023/01/27 04:31:03;;;;;;;;;;;;;;;;;;6129634;23;19924;-89
2023/01/27 04:33:29;;;;;;;;;;;;;;;;;;6130024;23;20338;-89
2023/01/27 04:35:55;;;;;;;;;;;;;;;;;;6154615;23;19917;-88
2023/01/27 04:38:21;;;;;;;;;;;;;;;;;;6130059;23;19925;-88
2023/01/27 04:40:47;;;;;;;;;;;;;;;;;;6129993;23;20323;-88
2023/01/27 04:43:13;;;;;;;;;;;;;;;;;;6129800;23;19920;-88
2023/01/27 04:45:38;;;;;;;;;;;;;;;;;;6130022;23;19917;-88
2023/01/27 04:48:05;;;;;;;;;;;;;;;;;;6154676;23;20302;-88
2023/01/27 04:50:31;;;;;;;;;;;;;;;;;;6129515;23;20283;-88
2023/01/27 04:52:57;;;;;;;;;;;;;;;;;;6129819;23;19924;-88
2023/01/27 04:55:23;;;;;;;;;;;;;;;;;;6129850;23;19924;-88
2023/01/27 04:57:48;;;;;;;;;;;;;;;;;;6129738;23;20298;-87
2023/01/27 05:00:14;;;;;;;;;;;;;;;;;;6129482;23;19917;-88
2023/01/27 05:02:40;;;;;;;;;;;;;;;;;;6127471;23;19924;-87
2023/01/27 05:05:06;;;;;;;;;;;;;;;;;;6128996;23;19921;-88
2023/01/27 05:07:32;;;;;;;;;;;;;;;;;;6128796;23;19968;-89
2023/01/27 05:09:58;;;;;;;;;;;;;;;;;;6128592;23;19921;-88
2023/01/27 05:12:24;;;;;;;;;;;;;;;;;;6129072;23;19917;-88
2023/01/27 05:14:50;;;;;;;;;;;;;;;;;;6128442;23;19923;-88
2023/01/27 05:17:16;;;;;;;;;;;;;;;;;;6104646;23;19987;-88
2023/01/27 05:19:41;;;;;;;;;;;;;;;;;;6128143;23;19987;-89
2023/01/27 05:22:10;;;;;;;;;;;;;;;;;;6103916;23;20407;-88
2023/01/27 05:24:37;;;;;;;;;;;;;;;;;;6104242;23;19921;-88
2023/01/27 05:27:02;;;;;;;;;;;;;;;;;;6104353;23;19979;-88
2023/01/27 05:29:28;;;;;;;;;;;;;;;;;;6128096;23;19917;-88
2023/01/27 05:31:54;;;;;;;;;;;;;;;;;;6104596;23;19916;-89
2023/01/27 05:34:20;;;;;;;;;;;;;;;;;;6104449;23;19995;-89
2023/01/27 05:36:46;;;;;;;;;;;;;;;;;;6104391;23;20341;-89
2023/01/27 05:39:12;;;;;;;;;;;;;;;;;;6103937;23;19948;-88
2023/01/27 05:41:38;;;;;;;;;;;;;;;;;;6104468;23;20254;-88
2023/01/27 05:44:04;;;;;;;;;;;;;;;;;;6104738;23;19921;-89
2023/01/27 05:46:30;;;;;;;;;;;;;;;;;;6104592;23;19917;-89
2023/01/27 05:48:56;;;;;;;;;;;;;;;;;;6128364;23;19923;-88
2023/01/27 05:51:22;;;;;;;;;;;;;;;;;;6104450;23;20559;-88
2023/01/27 05:53:48;;;;;;;;;;;;;;;;;;6104180;23;19923;-88
2023/01/27 05:56:14;;;;;;;;;;;;;;;;;;6104617;23;19923;-89
2023/01/27 05:58:40;;;;;;;;;;;;;;;;;;6128596;23;19991;-88
2023/01/27 06:01:06;;;;;;;;;;;;;;;;;;6103736;23;19920;-89
2023/01/27 06:03:37;;;;;;;;;;;;;;;;;;6104323;23;19921;-88
2023/01/27 06:06:03;;;;;;;;;;;;;;;;;;6104505;23;19916;-89
2023/01/27 06:08:29;;;;;;;;;;;;;;;;;;6104192;23;19916;-89
2023/01/27 06:10:55;;;;;;;;;;;;;;;;;;6103790;23;20255;-89
2023/01/27 06:13:21;;;;;;;;;;;;;;;;;;6104374;23;19944;-89
2023/01/27 06:15:47;;;;;;;;;;;;;;;;;;6115641;23;19920;-89
2023/01/27 06:18:13;;;;;;;;;;;;;;;;;;6153123;23;19975;-89
2023/01/27 06:20:38;;;;;;;;;;;;;;;;;;6128186;23;19991;-88
2023/01/27 06:23:04;;;;;;;;;;;;;;;;;;6153147;23;19925;-89
2023/01/27 06:25:30;;;;;;;;;;;;;;;;;;6128499;23;19920;-88
2023/01/27 06:27:56;;;;;;;;;;;;;;;;;;6128657;23;20032;-88
2023/01/27 06:30:22;;;;;;;;;;;;;;;;;;6127957;23;19921;-89
2023/01/27 06:32:48;;;;;;;;;;;;;;;;;;6153981;23;19984;-89
2023/01/27 06:35:14;;;;;;;;;;;;;;;;;;6130409;23;19955;-89
2023/01/27 06:37:40;;;;;;;;;;;;;;;;;;6155023;23;20782;-88
2023/01/27 06:40:06;;;;;;;;;;;;;;;;;;6129896;23;19944;-88
2023/01/27 06:42:32;;;;;;;;;;;;;;;;;;6130599;23;19963;-89
2023/01/27 06:44:58;;;;;;;;;;;;;;;;;;6130252;23;19920;-88
2023/01/27 06:47:23;;;;;;;;;;;;;;;;;;6130343;23;19948;-88
2023/01/27 06:49:49;;;;;;;;;;;;;;;;;;6128462;23;19952;-88
2023/01/27 06:52:15;;;;;;;;;;;;;;;;;;6129747;23;19960;-88
2023/01/27 06:54:41;;;;;;;;;;;;;;;;;;6154106;23;19971;-88
2023/01/27 06:57:07;;;;;;;;;;;;;;;;;;6130200;23;19916;-89
2023/01/27 06:59:33;;;;;;;;;;;;;;;;;;6154272;23;19916;-88
2023/01/27 07:01:59;;;;;;;;;;;;;;;;;;6128558;23;19988;-88
2023/01/27 07:04:25;;;;;;;;;;;;;;;;;;6154298;23;19971;-88
2023/01/27 07:06:51;;;;;;;;;;;;;;;;;;6130161;23;20275;-88
2023/01/27 07:09:17;;;;;;;;;;;;;;;;;;6128973;23;19920;-88
2023/01/27 07:11:43;;;;;;;;;;;;;;;;;;6154046;23;19916;-88
2023/01/27 07:14:10;;;;;;;;;;;;;;;;;;6154018;23;19948;-88
2023/01/27 07:16:36;;;;;;;;;;;;;;;;;;6129420;23;20358;-88
2023/01/27 07:19:02;;;;;;;;;;;;;;;;;;6128764;23;19921;-88
2023/01/27 07:21:28;;;;;;;;;;;;;;;;;;6153436;23;19967;-88
2023/01/27 07:23:54;;;;;;;;;;;;;;;;;;6129420;23;20323;-88
2023/01/27 07:26:20;;;;;;;;;;;;;;;;;;6129286;23;19920;-88
2023/01/27 07:28:46;;;;;;;;;;;;;;;;;;6129151;23;19917;-88
2023/01/27 07:31:12;;;;;;;;;;;;;;;;;;6129308;23;20326;-89
2023/01/27 07:33:38;;;;;;;;;;;;;;;;;;6129743;23;19991;-88
2023/01/27 07:36:04;;;;;;;;;;;;;;;;;;6129709;23;19998;-88
2023/01/27 07:38:29;;;;;;;;;;;;;;;;;;6129683;23;20268;-88
2023/01/27 07:40:57;;;;;;;;;;;;;;;;;;6129331;23;19923;-84
2023/01/27 07:43:24;;;;;;;;;;;;;;;;;;6153904;23;20322;-88
2023/01/27 07:45:50;;;;;;;;;;;;;;;;;;6129438;23;19920;-88
2023/01/27 07:48:16;;;;;;;;;;;;;;;;;;6130433;23;19917;-89
2023/01/27 07:50:42;;;;;;;;;;;;;;;;;;6128922;23;20331;-89
2023/01/27 07:53:08;;;;;;;;;;;;;;;;;;6154211;23;19924;-89
2023/01/27 07:55:34;;;;;;;;;;;;;;;;;;6129944;23;20331;-88
2023/01/27 07:58:00;;;;;;;;;;;;;;;;;;6129140;23;19920;-88
2023/01/27 08:00:27;;;;;;;;;;;;;;;;;;6128839;23;20551;-88
2023/01/27 08:02:52;;;;;;;;;;;;;;;;;;6129555;23;19948;-88
2023/01/27 08:05:22;;;;;;;;;;;;;;;;;;6154102;23;19928;-89
2023/01/27 08:07:47;;;;;;;;;;;;;;;;;;6124139;23;19916;-89
2023/01/27 08:10:13;;;;;;;;;;;;;;;;;;6128176;23;19917;-88
2023/01/27 08:12:39;;;;;;;;;;;;;;;;;;6128899;23;19917;-88
2023/01/27 08:15:05;;;;;;;;;;;;;;;;;;6128620;23;19924;-88
2023/01/27 08:17:31;;;;;;;;;;;;;;;;;;6153976;23;19987;-88
2023/01/27 08:19:57;;;;;;;;;;;;;;;;;;6128233;23;20292;-89
2023/01/27 08:22:23;;;;;;;;;;;;;;;;;;6129067;23;19992;-89
2023/01/27 08:24:56;;;;;;;;;;;;;;;;;;6128950;23;19920;-89
2023/01/27 08:27:22;;;;;;;;;;;;;;;;;;6129190;23;19917;-89
2023/01/27 08:29:48;;;;;;;;;;;;;;;;;;6128339;23;19917;-89
2023/01/27 08:35:02;;;;;;;;;;;;;;;;;;6153540;23;19917;-89
2023/01/27 08:37:28;;;;;;;;;;;;;;;;;;6128860;23;19995;-89
2023/01/27 08:39:59;;;;;;;;;;;;;;;;;;6127964;23;19925;-89
2023/01/27 08:42:25;;;;;;;;;;;;;;;;;;6128902;23;19916;-88
2023/01/27 08:44:50;;;;;;;;;;;;;;;;;;6128961;23;19925;-89
2023/01/27 08:47:16;;;;;;;;;;;;;;;;;;6128913;23;20235;-89
2023/01/27 08:52:11;;;;;;;;;;;;;;;;;;6153463;23;19921;-89
2023/01/27 08:54:37;;;;;;;;;;;;;;;;;;6128695;23;19983;-88
2023/01/27 08:57:05;;;;;;;;;;;;;;;;;;6127583;23;19917;-88
2023/01/27 08:59:49;;;;;;;;;;;;;;;;;;6127824;23;19971;-88
2023/01/27 09:02:15;;;;;;;;;;;;;;;;;;6151999;23;19921;-88
2023/01/27 09:04:43;;;;;;;;;;;;;;;;;;6128826;23;19931;-88
2023/01/27 09:07:09;;;;;;;;;;;;;;;;;;6128756;23;20323;-88
2023/01/27 09:09:35;;;;;;;;;;;;;;;;;;6151984;23;19923;-89
2023/01/27 09:12:01;;;;;;;;;;;;;;;;;;6128640;23;19928;-88
2023/01/27 09:14:27;;;;;;;;;;;;;;;;;;6128176;23;19916;-88
2023/01/27 09:16:53;;;;;;;;;;;;;;;;;;6104342;23;19956;-88
2023/01/27 09:19:19;;;;;;;;;;;;;;;;;;6102954;23;19917;-88
2023/01/27 09:21:45;;;;;;;;;;;;;;;;;;6104125;23;20286;-88
2023/01/27 09:24:21;;;;;;;;;;;;;;;;;;6100588;23;19929;-88
2023/01/27 09:26:47;;;;;;;;;;;;;;;;;;6103007;23;19923;-88
2023/01/27 09:29:13;;;;;;;;;;;;;;;;;;6127500;23;20007;-88
2023/01/27 09:31:39;;;;;;;;;;;;;;;;;;6103690;23;20323;-88
2023/01/27 09:34:05;;;;;;;;;;;;;;;;;;6103980;23;19916;-88
2023/01/27 09:36:31;;;;;;;;;;;;;;;;;;6104340;23;19920;-88
2023/01/27 09:38:58;;;;;;;;;;;;;;;;;;6103778;23;19991;-88
2023/01/27 09:41:24;;;;;;;;;;;;;;;;;;6104171;23;19916;-88
2023/01/27 09:46:20;;;;;;;;;;;;;;;;;;6128528;23;19917;-88
2023/01/27 09:48:51;;;;;;;;;;;;;;;;;;6104044;23;19920;-88
2023/01/27 09:51:17;;;;;;;;;;;;;;;;;;6104073;23;19916;-88
2023/01/27 09:53:43;;;;;;;;;;;;;;;;;;6128811;23;19924;-88
2023/01/27 09:56:09;;;;;;;;;;;;;;;;;;6104119;23;20338;-88
2023/01/27 10:01:17;;;;;;;;;;;;;;;;;;6128396;23;19923;-89
2023/01/27 10:03:43;;;;;;;;;;;;;;;;;;6104068;23;19920;-89
2023/01/27 10:06:08;;;;;;;;;;;;;;;;;;6104147;23;19991;-88
2023/01/27 10:08:34;;;;;;;;;;;;;;;;;;6130139;23;19948;-88
2023/01/27 10:11:00;;;;;;;;;;;;;;;;;;6106188;23;19971;-88
2023/01/27 10:13:27;;;;;;;;;;;;;;;;;;6130283;23;20331;-89
2023/01/27 10:15:55;;;;;;;;;;;;;;;;;;6142788;23;19921;-88
2023/01/27 10:18:21;;;;;;;;;;;;;;;;;;6130168;23;19925;-88
2023/01/27 10:20:47;;;;;;;;;;;;;;;;;;6154451;23;20354;-88
2023/01/27 10:23:13;;;;;;;;;;;;;;;;;;6130018;23;19920;-88
2023/01/27 10:25:39;;;;;;;;;;;;;;;;;;6130327;23;19920;-88
2023/01/27 10:28:04;;;;;;;;;;;;;;;;;;6130258;23;19987;-88
2023/01/27 10:30:30;;;;;;;;;;;;;;;;;;6129680;23;19990;-88
2023/01/27 10:33:06;;;;;;;;;;;;;;;;;;6130439;23;19968;-88
2023/01/27 10:35:31;;;;;;;;;;;;;;;;;;6129856;23;19921;-88
2023/01/27 10:37:57;;;;;;;;;;;;;;;;;;6130260;23;19923;-88
2023/01/27 10:40:23;;;;;;;;;;;;;;;;;;6127910;23;19917;-88
2023/01/27 10:42:49;;;;;;;;;;;;;;;;;;6128219;23;20357;-88
2023/01/27 10:45:16;;;;;;;;;;;;;;;;;;6128664;23;19924;-88
2023/01/27 10:47:42;;;;;;;;;;;;;;;;;;6129847;23;19920;-88
2023/01/27 10:50:08;;;;;;;;;;;;;;;;;;6128491;23;19981;-88
2023/01/27 10:52:34;;;;;;;;;;;;;;;;;;6129952;23;19917;-88
2023/01/27 10:55:00;;;;;;;;;;;;;;;;;;6124803;23;19925;-88
2023/01/27 10:57:27;;;;;;;;;;;;;;;;;;6154284;23;20247;-88
2023/01/27 11:02:24;;;;;;;;;;;;;;;;;;6154324;23;19921;-88
2023/01/27 11:04:50;;;;;;;;;;;;;;;;;;6153851;23;19920;-88
2023/01/27 11:07:25;;;;;;;;;;;;;;;;;;6129518;23;19917;-88
2023/01/27 11:09:55;;;;;;;;;;;;;;;;;;6153149;23;20105;-89
2023/01/27 11:12:25;;;;;;;;;;;;;;;;;;6129695;23;19921;-88
2023/01/27 11:14:51;;;;;;;;;;;;;;;;;;6128988;23;19940;-88
2023/01/27 11:17:17;;;;;;;;;;;;;;;;;;6129986;23;19917;-88
2023/01/27 11:19:43;;;;;;;;;;;;;;;;;;6129519;23;19940;-88
2023/01/27 11:22:09;;;;;;;;;;;;;;;;;;6129163;23;19917;-89
2023/01/27 11:24:35;;;;;;;;;;;;;;;;;;6129145;23;19931;-88
2023/01/27 11:27:09;;;;;;;;;;;;;;;;;;6129359;23;20302;-88
2023/01/27 11:29:35;;;;;;;;;;;;;;;;;;6129214;23;19916;-89
2023/01/27 11:32:01;;;;;;;;;;;;;;;;;;6154397;23;19971;-88
2023/01/27 11:34:27;;;;;;;;;;;;;;;;;;6129153;23;20251;-88
2023/01/27 11:39:22;;;;;;;;;;;;;;;;;;6153906;23;19924;-88
2023/01/27 11:41:48;;;;;;;;;;;;;;;;;;6129638;23;19917;-88
2023/01/27 11:44:14;;;;;;;;;;;;;;;;;;6128552;23;19920;-88
2023/01/27 11:46:40;;;;;;;;;;;;;;;;;;6154219;23;19917;-88
2023/01/27 11:49:06;;;;;;;;;;;;;;;;;;6128814;23;19928;-88
2023/01/27 11:51:32;;;;;;;;;;;;;;;;;;6129504;23;19916;-88
2023/01/27 11:53:59;;;;;;;;;;;;;;;;;;6128921;23;19917;-88
2023/01/27 11:56:25;;;;;;;;;;;;;;;;;;6129345;23;20307;-88
2023/01/27 11:58:51;;;;;;;;;;;;;;;;;;6128618;23;19921;-88
2023/01/27 12:01:17;;;;;;;;;;;;;;;;;;6129297;23;19917;-88
2023/01/27 12:03:43;;;;;;;;;;;;;;;;;;6128922;23;19920;-88
2023/01/27 12:06:09;;;;;;;;;;;;;;;;;;6129029;23;19917;-88
2023/01/27 12:08:35;;;;;;;;;;;;;;;;;;6154032;23;19923;-88
2023/01/27 12:11:08;;;;;;;;;;;;;;;;;;6153391;23;19995;-88
2023/01/27 12:13:34;;;;;;;;;;;;;;;;;;6128909;23;19995;-88
2023/01/27 12:16:00;;;;;;;;;;;;;;;;;;6153635;23;19951;-88
2023/01/27 12:18:26;;;;;;;;;;;;;;;;;;6153926;23;19991;-88
2023/01/27 12:23:55;;;;;;;;;;;;;;;;;;6165162;23;19968;-88
2023/01/27 12:28:57;;;;;;;;;;;;;;;;;;6152360;23;19917;-88
2023/01/27 12:31:23;;;;;;;;;;;;;;;;;;6128285;23;19943;-88
2023/01/27 12:33:49;;;;;;;;;;;;;;;;;;6128845;23;19917;-88
2023/01/27 12:36:15;;;;;;;;;;;;;;;;;;6128915;23;19917;-88
2023/01/27 12:38:41;;;;;;;;;;;;;;;;;;6128268;23;20695;-88
2023/01/27 12:41:07;;;;;;;;;;;;;;;;;;6152511;23;19921;-88
2023/01/27 12:43:33;;;;;;;;;;;;;;;;;;6128987;23;19921;-92
2023/01/27 12:45:59;;;;;;;;;;;;;;;;;;6129208;23;19916;-90
2023/01/27 12:48:25;;;;;;;;;;;;;;;;;;6129701;23;19951;-91
2023/01/27 12:50:51;;;;;;;;;;;;;;;;;;6129655;23;19916;-93
2023/01/27 12:53:17;;;;;;;;;;;;;;;;;;6129838;23;20009;-93
2023/01/27 12:55:43;;;;;;;;;;;;;;;;;;6129757;23;20335;-93
2023/01/27 12:58:09;;;;;;;;;;;;;;;;;;6130017;23;20247;-94
2023/01/27 13:00:35;;;;;;;;;;;;;;;;;;6129822;23;19923;-95
2023/01/27 13:03:01;;;;;;;;;;;;;;;;;;6130199;23;19944;-93
2023/01/27 13:05:27;;;;;;;;;;;;;;;;;;6129773;23;19916;-94
2023/01/27 13:07:53;;;;;;;;;;;;;;;;;;6129936;23;20373;-93
2023/01/27 13:10:18;;;;;;;;;;;;;;;;;;6129417;23;19956;-93
2023/01/27 13:15:23;;;;;;;;;;;;;;;;;;6154439;23;19924;-94
2023/01/27 13:17:49;;;;;;;;;;;;;;;;;;6130426;23;19916;-94
2023/01/27 13:20:15;;;;;;;;;;;;;;;;;;6129385;23;19998;-93
2023/01/27 13:22:41;;;;;;;;;;;;;;;;;;6129831;23;19928;-94
2023/01/27 13:25:07;;;;;;;;;;;;;;;;;;6129462;23;19920;-94
2023/01/27 13:27:38;;;;;;;;;;;;;;;;;;6130363;23;19920;-93
2023/01/27 13:30:04;;;;;;;;;;;;;;;;;;6153857;23;20224;-93
2023/01/27 13:32:30;;;;;;;;;;;;;;;;;;6153861;23;19921;-93
2023/01/27 13:34:56;;;;;;;;;;;;;;;;;;6129561;23;20405;-93
2023/01/27 13:37:23;;;;;;;;;;;;;;;;;;6129765;23;19917;-93
2023/01/27 13:39:49;;;;;;;;;;;;;;;;;;6129437;23;20060;-94
2023/01/27 13:42:15;;;;;;;;;;;;;;;;;;6130109;23;20001;-93
2023/01/27 13:44:40;;;;;;;;;;;;;;;;;;6131617;23;20259;-94
2023/01/27 13:49:51;;;;;;;;;;;;;;;;;;6156214;23;19920;-94
2023/01/27 13:52:17;;;;;;;;;;;;;;;;;;6131719;23;19916;-93
2023/01/27 13:54:43;;;;;;;;;;;;;;;;;;6131846;23;19928;-93
2023/01/27 13:57:09;;;;;;;;;;;;;;;;;;6131784;23;19917;-93
2023/01/27 13:59:35;;;;;;;;;;;;;;;;;;6131546;23;19916;-92
2023/01/27 14:02:01;;;;;;;;;;;;;;;;;;6131910;23;19921;-94
2023/01/27 14:07:16;;;;;;;;;;;;;;;;;;6156610;23;20302;-94
2023/01/27 14:09:41;;;;;;;;;;;;;;;;;;6130952;23;19993;-84
2023/01/27 14:12:07;;;;;;;;;;;;;;;;;;6131715;23;19992;-95
2023/01/27 14:14:33;;;;;;;;;;;;;;;;;;6131513;23;20250;-94
2023/01/27 14:16:59;;;;;;;;;;;;;;;;;;6105701;23;20328;-94
2023/01/27 14:19:25;;;;;;;;;;;;;;;;;;6105133;23;19916;-95
2023/01/27 14:21:51;;;;;;;;;;;;;;;;;;6105716;23;19921;-95
2023/01/27 14:24:19;;;;;;;;;;;;;;;;;;6105544;23;20258;-95
2023/01/27 14:26:46;;;;;;;;;;;;;;;;;;6105303;23;20323;-94
2023/01/27 14:29:12;;;;;;;;;;;;;;;;;;6105542;23;19925;-95
2023/01/27 14:31:38;;;;;;;;;;;;;;;;;;6105268;23;20303;-94
2023/01/27 14:34:03;;;;;;;;;;;;;;;;;;6105323;23;19920;-96
2023/01/27 14:36:29;;;;;;;;;;;;;;;;;;6105514;23;19916;-94
2023/01/27 14:38:55;;;;;;;;;;;;;;;;;;6105024;23;20362;-93
2023/01/27 14:41:21;;;;;;;;;;;;;;;;;;6105553;23;19921;-95
2023/01/27 14:43:47;;;;;;;;;;;;;;;;;;6105572;23;19925;-95
2023/01/27 14:49:17;;;;;;;;;;;;;;;;;;6165225;23;19963;-94
2023/01/27 14:51:43;;;;;;;;;;;;;;;;;;6105414;23;19917;-95
2023/01/27 14:54:08;;;;;;;;;;;;;;;;;;6105246;23;19917;-95
2023/01/27 14:56:34;;;;;;;;;;;;;;;;;;6105478;23;19927;-95
2023/01/27 14:59:00;;;;;;;;;;;;;;;;;;6104846;23;19956;-96
2023/01/27 15:01:26;;;;;;;;;;;;;;;;;;6105526;23;19924;-95
2023/01/27 15:03:52;;;;;;;;;;;;;;;;;;6105420;23;20235;-94
2023/01/27 15:06:18;;;;;;;;;;;;;;;;;;6105320;23;19940;-95
2023/01/27 15:08:44;;;;;;;;;;;;;;;;;;6105333;23;20319;-95
2023/01/27 15:11:10;;;;;;;;;;;;;;;;;;6105182;23;19924;-95
2023/01/27 15:13:36;;;;;;;;;;;;;;;;;;6105432;23;19916;-95
2023/01/27 15:16:02;;;;;;;;;;;;;;;;;;6041496;23;1854683;-95
2023/01/27 15:18:28;;;;;;;;;;;;;;;;;;6131936;23;20358;-95
2023/01/27 15:20:54;;;;;;;;;;;;;;;;;;6130520;23;19920;-94
2023/01/27 15:23:20;;;;;;;;;;;;;;;;;;6131253;23;20003;-95
2023/01/27 15:25:46;;;;;;;;;;;;;;;;;;6131283;23;19916;-95
2023/01/27 15:28:13;;;;;;;;;;;;;;;;;;6131238;23;19920;-96
2023/01/27 15:30:40;;;;;;;;;;;;;;;;;;6131005;23;19916;-95
2023/01/27 15:33:06;;;;;;;;;;;;;;;;;;6131396;23;20335;-96
2023/01/27 15:35:33;;;;;;;;;;;;;;;;;;6131256;23;19928;-95
2023/01/27 15:37:59;;;;;;;;;;;;;;;;;;6131188;23;19916;-96
2023/01/27 15:40:26;;;;;;;;;;;;;;;;;;6130766;23;20342;-96
2023/01/27 15:42:52;;;;;;;;;;;;;;;;;;6131144;23;20019;-94
2023/01/27 15:45:18;;;;;;;;;;;;;;;;;;6130871;23;19921;-94
2023/01/27 15:47:44;;;;;;;;;;;;;;;;;;6130951;23;20266;-95
2023/01/27 15:50:10;;;;;;;;;;;;;;;;;;6130712;23;19916;-95
2023/01/27 15:52:35;;;;;;;;;;;;;;;;;;6131014;23;19917;-95
2023/01/27 15:55:01;;;;;;;;;;;;;;;;;;6130825;23;19927;-94
2023/01/27 15:57:28;;;;;;;;;;;;;;;;;;6131131;23;19982;-95
2023/01/27 15:59:54;;;;;;;;;;;;;;;;;;6130350;23;19953;-94
2023/01/27 16:02:19;;;;;;;;;;;;;;;;;;6131092;23;19964;-95
2023/01/27 16:04:45;;;;;;;;;;;;;;;;;;6130494;23;19920;-95
2023/01/27 16:07:11;;;;;;;;;;;;;;;;;;6130556;23;19920;-94
2023/01/27 16:09:37;;;;;;;;;;;;;;;;;;6130563;23;19991;-96
2023/01/27 16:12:03;;;;;;;;;;;;;;;;;;6130739;23;19952;-96
2023/01/27 16:14:29;;;;;;;;;;;;;;;;;;6130868;23;19948;-95
2023/01/27 16:16:55;;;;;;;;;;;;;;;;;;6106212;23;19924;-95
2023/01/27 16:19:21;;;;;;;;;;;;;;;;;;6105759;23;19931;-96
2023/01/27 16:21:48;;;;;;;;;;;;;;;;;;6106180;23;19983;-94
2023/01/27 16:24:14;;;;;;;;;;;;;;;;;;6106029;23;20452;-95
2023/01/27 16:26:40;;;;;;;;;;;;;;;;;;6106318;23;19922;-95
2023/01/27 16:29:06;;;;;;;;;;;;;;;;;;6105829;23;19920;-96
2023/01/27 16:31:32;;;;;;;;;;;;;;;;;;6106372;23;19921;-95
2023/01/27 16:33:57;;;;;;;;;;;;;;;;;;6106205;23;19939;-95
2023/01/27 16:36:23;;;;;;;;;;;;;;;;;;6106704;23;20327;-95
2023/01/27 16:38:49;;;;;;;;;;;;;;;;;;6106389;23;19920;-94
2023/01/27 16:41:15;;;;;;;;;;;;;;;;;;6105750;23;19923;-95
2023/01/27 16:43:41;;;;;;;;;;;;;;;;;;6105898;23;19924;-94
2023/01/27 16:46:07;;;;;;;;;;;;;;;;;;6106204;23;19917;-94
2023/01/27 16:48:33;;;;;;;;;;;;;;;;;;6106101;23;19955;-95
2023/01/27 16:50:59;;;;;;;;;;;;;;;;;;6105639;23;19924;-95
2023/01/27 16:53:25;;;;;;;;;;;;;;;;;;6105897;23;19924;-96
2023/01/27 16:55:51;;;;;;;;;;;;;;;;;;6105840;23;19923;-95
2023/01/27 16:58:17;;;;;;;;;;;;;;;;;;6106071;23;19923;-95
2023/01/27 17:00:45;;;;;;;;;;;;;;;;;;6105531;23;19923;-94
2023/01/27 17:03:11;;;;;;;;;;;;;;;;;;6106307;23;20017;-94
2023/01/27 17:05:37;;;;;;;;;;;;;;;;;;6105982;23;20235;-95
2023/01/27 17:08:03;;;;;;;;;;;;;;;;;;6105982;23;19971;-94
2023/01/27 17:10:28;;;;;;;;;;;;;;;;;;6105603;23;19917;-94
2023/01/27 17:12:54;;;;;;;;;;;;;;;;;;6106298;23;19917;-95
2023/01/27 17:15:20;;;;;;;;;;;;;;;;;;6111688;23;19924;-95
2023/01/27 17:17:46;;;;;;;;;;;;;;;;;;6130121;23;19920;-93
2023/01/27 17:20:12;;;;;;;;;;;;;;;;;;6129636;23;19968;-94
2023/01/27 17:22:38;;;;;;;;;;;;;;;;;;6130076;23;19955;-94
2023/01/27 17:25:05;;;;;;;;;;;;;;;;;;6130154;23;19925;-94
2023/01/27 17:27:33;;;;;;;;;;;;;;;;;;6130389;23;20250;-94
2023/01/27 17:29:59;;;;;;;;;;;;;;;;;;6129662;23;19923;-94
2023/01/27 17:32:24;;;;;;;;;;;;;;;;;;6130155;23;19952;-94
2023/01/27 17:34:50;;;;;;;;;;;;;;;;;;6129998;23;19916;-94
2023/01/27 17:37:16;;;;;;;;;;;;;;;;;;6129931;23;19939;-95
2023/01/27 17:39:42;;;;;;;;;;;;;;;;;;6129767;23;19952;-92
2023/01/27 17:42:08;;;;;;;;;;;;;;;;;;6130149;23;19932;-93
2023/01/27 17:44:35;;;;;;;;;;;;;;;;;;6130100;23;20379;-94
2023/01/27 17:47:01;;;;;;;;;;;;;;;;;;6130170;23;19971;-94